createdAt,value
2023-04-16T00:00:33.367Z,3.10
2023-04-16T00:02:59.986Z,2.47
2023-04-16T00:05:26.650Z,2.78
2023-04-16T00:07:52.983Z,2.45
2023-04-16T00:10:19.347Z,2.65
2023-04-16T00:12:45.744Z,2.42
2023-04-16T00:15:12.140Z,2.13
2023-04-16T00:17:38.497Z,1.92
2023-04-16T00:20:04.932Z,1.90
2023-04-16T00:22:31.283Z,2.45
2023-04-16T00:24:57.653Z,2.35
2023-04-16T00:27:24.027Z,2.38
2023-04-16T00:29:50.475Z,2.67
2023-04-16T00:32:16.794Z,2.47
2023-04-16T00:34:43.168Z,1.90
2023-04-16T00:37:09.482Z,2.45
2023-04-16T00:39:35.792Z,2.20
2023-04-16T00:42:02.151Z,2.40
2023-04-16T00:44:28.591Z,2.70
2023-04-16T00:46:55.077Z,2.53
2023-04-16T00:49:21.625Z,1.95
2023-04-16T00:51:48.029Z,2.50
2023-04-16T00:54:14.352Z,2.80
2023-04-16T00:56:40.734Z,2.53
2023-04-16T00:59:07.288Z,2.08
2023-04-16T01:01:33.904Z,2.20
2023-04-16T01:04:00.433Z,2.70
2023-04-16T01:06:27.061Z,2.67
2023-04-16T01:08:53.575Z,2.88
2023-04-16T01:11:19.940Z,2.03
2023-04-16T01:13:46.260Z,2.60
2023-04-16T01:16:12.586Z,3.08
2023-04-16T01:18:38.981Z,2.25
2023-04-16T01:21:05.307Z,3.67
2023-04-16T01:23:31.707Z,2.70
2023-04-16T01:25:58.087Z,2.35
2023-04-16T01:28:24.811Z,3.10
2023-04-16T01:30:51.407Z,2.50
2023-04-16T01:33:30.412Z,2.65
2023-04-16T01:35:56.817Z,3.17
2023-04-16T01:38:23.501Z,2.55
2023-04-16T01:40:49.868Z,2.45
2023-04-16T01:43:16.657Z,2.40
2023-04-16T01:45:43.025Z,2.85
2023-04-16T01:48:11.487Z,3.38
2023-04-16T01:50:37.912Z,2.50
2023-04-16T01:53:04.381Z,2.65
2023-04-16T01:55:30.732Z,2.60
2023-04-16T01:57:57.098Z,2.97
2023-04-16T02:00:26.461Z,2.72
2023-04-16T02:02:53.166Z,2.35
2023-04-16T02:05:25.751Z,2.58
2023-04-16T02:07:52.073Z,2.75
2023-04-16T02:10:18.435Z,3.00
2023-04-16T02:12:45.378Z,2.85
2023-04-16T02:15:13.266Z,2.55
2023-04-16T02:17:39.737Z,2.67
2023-04-16T02:20:08.872Z,2.75
2023-04-16T02:22:37.961Z,2.30
2023-04-16T02:25:04.458Z,2.65
2023-04-16T02:27:31.131Z,2.60
2023-04-16T02:30:06.589Z,3.97
2023-04-16T02:32:34.794Z,3.00
2023-04-16T02:35:01.159Z,2.35
2023-04-16T02:37:27.528Z,2.90
2023-04-16T02:39:53.921Z,2.80
2023-04-16T02:42:20.359Z,2.58
2023-04-16T02:44:47.141Z,2.55
2023-04-16T02:47:13.590Z,2.47
2023-04-16T02:49:39.919Z,3.00
2023-04-16T02:52:06.284Z,2.63
2023-04-16T02:54:32.630Z,3.03
2023-04-16T02:56:58.982Z,2.72
2023-04-16T02:59:25.419Z,3.38
2023-04-16T03:01:51.898Z,3.38
2023-04-16T03:04:18.436Z,3.58
2023-04-16T03:06:44.851Z,2.80
2023-04-16T03:09:11.394Z,3.70
2023-04-16T03:11:38.632Z,2.60
2023-04-16T03:14:05.015Z,2.72
2023-04-16T03:16:31.347Z,2.90
2023-04-16T03:18:57.651Z,2.78
2023-04-16T03:21:24.022Z,3.35
2023-04-16T03:23:50.348Z,3.50
2023-04-16T03:26:16.749Z,2.65
2023-04-16T03:28:43.200Z,3.03
2023-04-16T03:31:09.593Z,3.45
2023-04-16T03:33:36.142Z,2.80
2023-04-16T03:36:03.446Z,3.20
2023-04-16T03:38:30.757Z,3.33
2023-04-16T03:40:58.578Z,2.45
2023-04-16T03:43:26.115Z,2.80
2023-04-16T03:45:52.481Z,3.30
2023-04-16T03:48:22.201Z,3.10
2023-04-16T03:50:48.644Z,2.90
2023-04-16T03:53:16.824Z,2.33
2023-04-16T03:55:43.205Z,4.00
2023-04-16T03:58:09.978Z,2.90
2023-04-16T04:00:36.371Z,3.47
2023-04-16T04:03:11.632Z,2.47
2023-04-16T04:05:38.620Z,3.28
2023-04-16T04:08:05.152Z,3.50
2023-04-16T04:10:32.177Z,2.58
2023-04-16T04:12:59.149Z,3.45
2023-04-16T04:15:25.496Z,3.05
2023-04-16T04:17:52.263Z,2.53
2023-04-16T04:20:18.666Z,3.38
2023-04-16T04:22:46.747Z,2.97
2023-04-16T04:25:13.304Z,2.85
2023-04-16T04:27:39.643Z,3.55
2023-04-16T04:30:07.320Z,2.78
2023-04-16T04:32:33.878Z,3.05
2023-04-16T04:35:00.259Z,3.38
2023-04-16T04:37:26.603Z,3.03
2023-04-16T04:39:53.115Z,2.58
2023-04-16T04:42:19.555Z,2.88
2023-04-16T04:44:45.894Z,2.63
2023-04-16T04:47:12.271Z,2.67
2023-04-16T04:49:38.610Z,3.13
2023-04-16T04:52:04.946Z,2.58
2023-04-16T04:54:31.549Z,2.97
2023-04-16T04:56:57.957Z,2.97
2023-04-16T04:59:24.450Z,2.90
2023-04-16T05:01:50.914Z,2.85
2023-04-16T05:04:17.374Z,2.78
2023-04-16T05:06:43.929Z,2.97
2023-04-16T05:09:10.532Z,3.03
2023-04-16T05:11:37.032Z,2.88
2023-04-16T05:14:03.356Z,3.05
2023-04-16T05:16:29.759Z,3.05
2023-04-16T05:18:56.120Z,2.70
2023-04-16T05:21:22.562Z,3.17
2023-04-16T05:23:48.931Z,2.85
2023-04-16T05:26:15.259Z,3.60
2023-04-16T05:28:41.564Z,3.55
2023-04-16T05:31:07.993Z,2.85
2023-04-16T05:33:34.313Z,3.33
2023-04-16T05:36:00.605Z,2.67
2023-04-16T05:38:27.104Z,3.03
2023-04-16T05:40:53.443Z,3.60
2023-04-16T05:43:19.763Z,2.83
2023-04-16T05:45:46.250Z,2.85
2023-04-16T05:48:12.611Z,2.47
2023-04-16T05:50:38.912Z,3.05
2023-04-16T05:53:05.450Z,2.60
2023-04-16T05:55:31.767Z,2.53
2023-04-16T05:57:58.116Z,3.03
2023-04-16T06:00:24.492Z,3.65
2023-04-16T06:02:50.969Z,2.67
2023-04-16T06:05:17.513Z,2.75
2023-04-16T06:07:43.906Z,2.72
2023-04-16T06:10:10.256Z,3.30
2023-04-16T06:12:36.564Z,3.03
2023-04-16T06:15:02.980Z,3.28
2023-04-16T06:17:29.310Z,3.08
2023-04-16T06:19:55.757Z,3.05
2023-04-16T06:22:22.133Z,2.67
2023-04-16T06:24:48.461Z,2.78
2023-04-16T06:27:14.821Z,2.78
2023-04-16T06:29:41.962Z,2.78
2023-04-16T06:32:08.391Z,2.95
2023-04-16T06:34:34.705Z,3.33
2023-04-16T06:37:01.057Z,3.20
2023-04-16T06:39:27.404Z,3.30
2023-04-16T06:41:53.805Z,3.60
2023-04-16T06:44:20.188Z,2.92
2023-04-16T06:46:46.545Z,2.60
2023-04-16T06:49:12.950Z,3.58
2023-04-16T06:51:39.321Z,2.72
2023-04-16T06:54:05.626Z,2.78
2023-04-16T06:56:31.992Z,2.50
2023-04-16T06:58:58.353Z,3.88
2023-04-16T07:01:24.786Z,3.00
2023-04-16T07:03:52.935Z,3.63
2023-04-16T07:06:19.461Z,2.55
2023-04-16T07:08:45.793Z,3.10
2023-04-16T07:11:12.183Z,3.80
2023-04-16T07:13:38.542Z,3.13
2023-04-16T07:16:04.892Z,2.60
2023-04-16T07:18:31.280Z,2.78
2023-04-16T07:20:57.634Z,2.72
2023-04-16T07:23:23.926Z,3.10
2023-04-16T07:25:50.326Z,2.47
2023-04-16T07:28:16.683Z,3.35
2023-04-16T07:30:42.995Z,3.30
2023-04-16T07:33:09.504Z,3.17
2023-04-16T07:35:35.873Z,2.97
2023-04-16T07:38:02.242Z,2.80
2023-04-16T07:40:28.556Z,2.78
2023-04-16T07:42:54.924Z,2.47
2023-04-16T07:45:21.252Z,3.10
2023-04-16T07:47:47.592Z,3.53
2023-04-16T07:50:13.986Z,3.13
2023-04-16T07:52:40.313Z,3.10
2023-04-16T07:55:06.671Z,3.13
2023-04-16T07:57:33.067Z,2.97
2023-04-16T07:59:59.392Z,3.10
2023-04-16T08:02:25.868Z,2.30
2023-04-16T08:04:52.602Z,2.63
2023-04-16T08:07:19.071Z,2.83
2023-04-16T08:09:45.392Z,2.38
2023-04-16T08:12:11.777Z,2.40
2023-04-16T08:14:38.089Z,2.30
2023-04-16T08:17:04.405Z,2.40
2023-04-16T08:19:30.761Z,2.72
2023-04-16T08:21:57.079Z,2.35
2023-04-16T08:24:23.436Z,3.17
2023-04-16T08:26:49.789Z,2.03
2023-04-16T08:29:16.119Z,2.20
2023-04-16T08:31:42.656Z,2.00
2023-04-16T08:34:09.155Z,2.72
2023-04-16T08:36:35.493Z,2.38
2023-04-16T08:39:01.839Z,2.17
2023-04-16T08:41:28.249Z,2.03
2023-04-16T08:43:54.568Z,2.67
2023-04-16T08:46:21.036Z,2.63
2023-04-16T08:48:47.392Z,2.17
2023-04-16T08:51:13.721Z,1.92
2023-04-16T08:53:40.015Z,1.60
2023-04-16T08:56:06.393Z,1.88
2023-04-16T08:58:32.714Z,2.13
2023-04-16T09:00:59.027Z,2.28
2023-04-16T09:03:25.527Z,2.33
2023-04-16T09:05:51.977Z,2.17
2023-04-16T09:08:18.305Z,2.40
2023-04-16T09:10:44.716Z,2.03
2023-04-16T09:13:11.160Z,2.20
2023-04-16T09:15:37.592Z,2.97
2023-04-16T09:18:04.040Z,2.47
2023-04-16T09:20:30.384Z,2.42
2023-04-16T09:22:56.704Z,2.78
2023-04-16T09:25:23.066Z,2.05
2023-04-16T09:27:49.383Z,2.28
2023-04-16T09:30:15.712Z,2.92
2023-04-16T09:32:42.145Z,1.92
2023-04-16T09:35:08.507Z,2.92
2023-04-16T09:37:34.927Z,1.85
2023-04-16T09:40:01.314Z,1.77
2023-04-16T09:42:27.683Z,2.08
2023-04-16T09:44:53.997Z,1.83
2023-04-16T09:47:20.428Z,2.17
2023-04-16T09:49:46.801Z,1.33
2023-04-16T09:52:13.135Z,1.75
2023-04-16T09:54:39.486Z,2.45
2023-04-16T14:35:11.731Z,2.33
2023-04-16T14:37:38.118Z,2.47
2023-04-16T14:40:04.525Z,2.58
2023-04-16T14:42:30.972Z,4.03
2023-04-16T14:44:57.437Z,2.83
2023-04-16T14:47:23.794Z,4.40
2023-04-16T14:49:50.331Z,3.13
2023-04-16T14:52:16.681Z,3.28
2023-04-16T14:54:43.064Z,3.17
2023-04-16T14:57:09.481Z,2.70
2023-04-16T14:59:35.800Z,3.38
2023-04-16T15:02:02.259Z,4.20
2023-04-16T15:04:28.869Z,3.03
2023-04-16T15:06:55.670Z,2.95
2023-04-16T15:09:22.154Z,3.17
2023-04-16T15:11:48.543Z,3.70
2023-04-16T15:14:14.920Z,3.08
2023-04-16T15:16:41.442Z,3.20
2023-04-16T15:19:08.060Z,4.72
2023-04-16T15:21:34.562Z,3.15
2023-04-16T15:24:00.998Z,3.67
2023-04-16T15:26:27.532Z,3.97
2023-04-16T15:28:53.958Z,3.33
2023-04-16T15:31:20.368Z,3.30
2023-04-16T15:33:46.812Z,3.80
2023-04-16T15:36:13.208Z,3.35
2023-04-16T15:38:39.551Z,4.22
2023-04-16T15:41:05.951Z,3.45
2023-04-16T15:43:32.312Z,4.50
2023-04-16T15:45:58.682Z,3.55
2023-04-16T15:48:25.162Z,3.75
2023-04-16T15:50:51.514Z,3.45
2023-04-16T15:53:17.880Z,3.60
2023-04-16T15:55:44.396Z,3.40
2023-04-16T15:58:10.805Z,4.15
2023-04-16T16:00:37.115Z,1999.90
2023-04-16T16:03:03.759Z,844.53
2023-04-16T16:05:30.195Z,1220.78
2023-04-16T16:07:56.528Z,929.42
2023-04-16T16:10:22.896Z,836.55
2023-04-16T16:12:49.228Z,750.72
2023-04-16T16:15:15.545Z,663.75
2023-04-16T16:17:41.957Z,616.17
2023-04-16T16:20:08.305Z,574.10
2023-04-16T16:22:34.623Z,566.00
2023-04-16T16:25:00.991Z,493.35
2023-04-16T16:27:27.303Z,468.52
2023-04-16T16:29:53.642Z,476.48
2023-04-16T16:32:20.029Z,400.13
2023-04-16T16:34:46.382Z,423.40
2023-04-16T16:37:12.695Z,360.15
2023-04-16T16:39:39.142Z,379.48
2023-04-16T16:42:05.465Z,319.50
2023-04-16T16:44:31.813Z,348.65
2023-04-16T16:46:58.225Z,274.05
2023-04-16T16:49:24.578Z,313.80
2023-04-16T16:51:50.888Z,285.27
2023-04-16T16:54:17.257Z,255.80
2023-04-16T16:56:43.571Z,274.27
2023-04-16T16:59:10.535Z,249.20
2023-04-16T17:01:37.277Z,221.73
2023-04-16T17:04:03.790Z,223.75
2023-04-16T17:06:30.243Z,207.50
2023-04-16T17:08:56.777Z,185.55
2023-04-16T17:11:23.107Z,163.45
2023-04-16T17:13:49.425Z,130.73
2023-04-16T17:16:15.876Z,140.05
2023-04-16T17:18:42.181Z,154.32
2023-04-16T17:21:08.505Z,146.10
2023-04-16T17:23:35.012Z,130.70
2023-04-16T17:26:01.318Z,142.63
2023-04-16T17:28:27.749Z,125.32
2023-04-16T17:30:54.138Z,114.25
2023-04-16T17:33:20.551Z,106.25
2023-04-16T17:35:46.906Z,107.85
2023-04-16T17:38:13.273Z,107.22
2023-04-16T17:40:39.624Z,104.43
2023-04-16T17:43:05.976Z,100.50
2023-04-16T17:45:32.323Z,77.80
2023-04-16T17:47:58.696Z,95.18
2023-04-16T17:50:25.181Z,86.63
2023-04-16T17:52:51.632Z,88.22
2023-04-16T17:55:17.909Z,70.10
2023-04-16T17:57:44.242Z,84.82
2023-04-16T18:00:10.619Z,70.70
2023-04-16T18:02:39.934Z,70.28
2023-04-16T18:05:06.431Z,49.63
2023-04-16T18:07:32.802Z,55.95
2023-04-16T18:09:59.186Z,60.78
2023-04-16T18:12:25.524Z,63.30
2023-04-16T18:14:51.978Z,54.75
2023-04-16T18:17:18.335Z,58.92
2023-04-16T18:19:44.659Z,40.67
2023-04-16T18:22:11.113Z,42.95
2023-04-16T18:24:37.425Z,48.45
2023-04-16T18:27:03.751Z,55.70
2023-04-16T18:29:30.200Z,55.78
2023-04-16T18:31:56.525Z,47.50
2023-04-16T18:34:22.912Z,52.22
2023-04-16T18:36:49.289Z,54.25
2023-04-16T18:39:15.953Z,41.15
2023-04-16T18:41:42.515Z,40.53
2023-04-16T18:44:08.879Z,44.55
2023-04-16T18:46:35.231Z,43.90
2023-04-16T18:49:01.628Z,41.75
2023-04-16T18:51:28.204Z,51.03
2023-04-16T18:53:54.516Z,45.92
2023-04-16T18:56:21.011Z,40.83
2023-04-16T18:58:47.397Z,40.38
2023-04-16T19:01:13.759Z,40.92
2023-04-16T19:03:40.192Z,34.35
2023-04-16T19:06:06.601Z,36.50
2023-04-16T19:08:32.960Z,39.63
2023-04-16T19:10:59.368Z,36.17
2023-04-16T19:13:25.773Z,34.25
2023-04-16T19:15:52.098Z,29.48
2023-04-16T19:18:18.423Z,29.90
2023-04-16T19:20:44.793Z,26.98
2023-04-16T19:23:11.100Z,33.25
2023-04-16T19:25:37.402Z,28.52
2023-04-16T19:28:03.772Z,31.25
2023-04-16T19:30:30.091Z,27.00
2023-04-16T19:32:56.450Z,29.10
2023-04-16T19:35:22.861Z,24.15
2023-04-16T19:37:49.202Z,23.60
2023-04-16T19:40:15.548Z,28.65
2023-04-16T19:42:41.933Z,26.95
2023-04-16T19:45:08.284Z,22.90
2023-04-16T19:47:34.639Z,23.20
2023-04-16T19:50:01.043Z,19.80
2023-04-16T19:52:27.497Z,23.00
2023-04-16T19:54:53.833Z,18.48
2023-04-16T19:57:20.214Z,23.25
2023-04-16T19:59:46.547Z,26.33
2023-04-16T20:02:12.921Z,25.38
2023-04-16T20:04:39.305Z,24.10
2023-04-16T20:07:05.611Z,23.58
2023-04-16T20:09:31.932Z,19.88
2023-04-16T20:11:58.303Z,21.02
2023-04-16T20:14:24.635Z,20.50
2023-04-16T20:16:51.018Z,20.13
2023-04-16T20:19:17.925Z,19.92
2023-04-16T20:21:44.237Z,18.50
2023-04-16T20:24:10.580Z,17.52
2023-04-16T20:26:36.972Z,20.90
2023-04-16T20:29:03.366Z,16.30
2023-04-16T20:31:29.836Z,18.13
2023-04-16T20:33:56.210Z,19.30
2023-04-16T20:36:22.551Z,18.33
2023-04-16T20:38:49.005Z,21.30
2023-04-16T20:41:15.364Z,14.75
2023-04-16T20:43:41.681Z,18.73
2023-04-16T20:46:08.053Z,16.27
2023-04-16T20:48:34.468Z,15.50
2023-04-16T20:51:00.991Z,16.73
2023-04-16T20:53:27.436Z,18.27
2023-04-16T20:55:53.815Z,16.45
2023-04-16T20:58:20.144Z,18.50
2023-04-16T21:00:46.461Z,17.45
2023-04-16T21:03:12.921Z,15.95
2023-04-16T21:05:39.339Z,22.83
2023-04-16T21:08:05.658Z,17.17
2023-04-16T21:10:32.036Z,16.15
2023-04-16T21:12:58.355Z,16.15
2023-04-16T21:15:24.674Z,13.95
2023-04-16T21:17:51.139Z,19.02
2023-04-16T21:20:17.608Z,13.77
2023-04-16T21:22:43.935Z,15.02
2023-04-16T21:25:10.297Z,13.55
2023-04-16T21:27:36.647Z,13.90
2023-04-16T21:30:02.961Z,11.52
2023-04-16T21:32:29.376Z,15.40
2023-04-16T21:34:55.739Z,12.05
2023-04-16T21:37:22.075Z,13.88
2023-04-16T21:39:48.425Z,12.52
2023-04-16T21:42:14.736Z,12.00
2023-04-16T21:44:41.052Z,11.32
2023-04-16T21:47:07.488Z,12.18
2023-04-16T21:49:33.933Z,12.52
2023-04-16T21:52:00.243Z,12.32
2023-04-16T21:54:26.622Z,13.10
2023-04-16T21:56:52.947Z,14.20
2023-04-16T21:59:19.281Z,11.15
2023-04-16T22:01:45.766Z,10.95
2023-04-16T22:04:12.267Z,12.48
2023-04-16T22:06:38.748Z,12.13
2023-04-16T22:09:05.188Z,9.70
2023-04-16T22:11:31.522Z,9.88
2023-04-16T22:13:57.983Z,11.30
2023-04-16T22:16:24.465Z,11.85
2023-04-16T22:18:50.849Z,12.10
2023-04-16T22:21:17.175Z,11.80
2023-04-16T22:23:43.533Z,10.20
2023-04-16T22:26:09.850Z,9.52
2023-04-16T22:28:36.180Z,11.13
2023-04-16T22:31:02.544Z,12.10
2023-04-16T22:33:28.850Z,13.13
2023-04-16T22:35:55.255Z,12.85
2023-04-16T22:38:21.658Z,12.07
2023-04-16T22:40:47.958Z,10.68
2023-04-16T22:43:14.269Z,10.45
2023-04-16T22:45:40.671Z,10.85
2023-04-16T22:48:07.173Z,11.18
2023-04-16T22:50:33.560Z,9.88
2023-04-16T22:52:59.927Z,12.50
2023-04-16T22:55:26.253Z,11.68
2023-04-16T22:57:52.584Z,10.05
2023-04-16T23:00:18.943Z,12.13
2023-04-16T23:02:45.495Z,10.80
2023-04-16T23:05:12.114Z,11.23
2023-04-16T23:07:38.558Z,11.90
2023-04-16T23:10:04.886Z,11.32
2023-04-16T23:12:31.194Z,11.18
2023-04-16T23:14:57.568Z,9.63
2023-04-16T23:17:24.015Z,9.88
2023-04-16T23:19:50.371Z,9.80
2023-04-16T23:22:16.729Z,11.00
2023-04-16T23:24:43.064Z,9.30
2023-04-16T23:27:09.427Z,10.02
2023-04-16T23:29:35.778Z,9.63
2023-04-16T23:32:02.107Z,10.18
2023-04-16T23:34:28.423Z,9.00
2023-04-16T23:36:54.817Z,9.38
2023-04-16T23:39:21.136Z,10.10
2023-04-16T23:41:47.448Z,9.93
2023-04-16T23:44:13.803Z,9.35
2023-04-16T23:46:40.168Z,10.85
2023-04-16T23:49:06.517Z,9.77
2023-04-16T23:51:32.895Z,8.02
2023-04-16T23:53:59.227Z,8.80
2023-04-16T23:56:25.620Z,9.57
2023-04-16T23:58:51.983Z,8.15
